sensor_id;sensor_type;location;lat;lon;timestamp;P1;durP1;ratioP1;P2;durP2;ratioP2
23163;SDS011;31429;42.674;23.350;2023-02-18T00:00:51;22.17;;;15.67;;
23163;SDS011;31429;42.674;23.350;2023-02-18T00:01:51;22.43;;;14.77;;
23163;SDS011;31429;42.674;23.350;2023-02-18T00:02:52;24.77;;;14.73;;
23163;SDS011;31429;42.674;23.350;2023-02-18T00:03:55;24.65;;;16.42;;
23163;SDS011;31429;42.674;23.350;2023-02-18T00:04:56;21.30;;;15.70;;
23163;SDS011;31429;42.674;23.350;2023-02-18T00:05:57;24.40;;;15.27;;
23163;SDS011;31429;42.674;23.350;2023-02-18T00:06:59;23.47;;;15.60;;
23163;SDS011;31429;42.674;23.350;2023-02-18T00:07:59;25.52;;;16.73;;
23163;SDS011;31429;42.674;23.350;2023-02-18T00:09:00;29.23;;;17.97;;
23163;SDS011;31429;42.674;23.350;2023-02-18T00:10:02;24.60;;;16.88;;
23163;SDS011;31429;42.674;23.350;2023-02-18T00:11:04;24.88;;;16.27;;
23163;SDS011;31429;42.674;23.350;2023-02-18T00:12:05;22.77;;;16.15;;
23163;SDS011;31429;42.674;23.350;2023-02-18T00:13:05;25.50;;;16.90;;
23163;SDS011;31429;42.674;23.350;2023-02-18T00:14:07;25.67;;;16.00;;
23163;SDS011;31429;42.674;23.350;2023-02-18T00:15:11;23.35;;;16.23;;
23163;SDS011;31429;42.674;23.350;2023-02-18T00:16:12;24.40;;;15.30;;
23163;SDS011;31429;42.674;23.350;2023-02-18T00:17:13;23.57;;;16.53;;
23163;SDS011;31429;42.674;23.350;2023-02-18T00:18:13;22.70;;;16.10;;
23163;SDS011;31429;42.674;23.350;2023-02-18T00:19:14;26.00;;;16.53;;
23163;SDS011;31429;42.674;23.350;2023-02-18T00:20:17;24.23;;;15.30;;
23163;SDS011;31429;42.674;23.350;2023-02-18T00:21:17;25.20;;;15.57;;
23163;SDS011;31429;42.674;23.350;2023-02-18T00:22:19;26.33;;;16.30;;
23163;SDS011;31429;42.674;23.350;2023-02-18T00:23:20;22.15;;;14.68;;
23163;SDS011;31429;42.674;23.350;2023-02-18T00:24:21;22.67;;;15.37;;
23163;SDS011;31429;42.674;23.350;2023-02-18T00:25:21;21.13;;;15.57;;
23163;SDS011;31429;42.674;23.350;2023-02-18T00:26:22;22.70;;;14.93;;
23163;SDS011;31429;42.674;23.350;2023-02-18T00:27:23;22.60;;;15.37;;
23163;SDS011;31429;42.674;23.350;2023-02-18T00:28:24;25.13;;;16.43;;
23163;SDS011;31429;42.674;23.350;2023-02-18T00:29:24;22.30;;;15.23;;
23163;SDS011;31429;42.674;23.350;2023-02-18T00:30:25;21.60;;;15.10;;
23163;SDS011;31429;42.674;23.350;2023-02-18T00:31:28;27.13;;;16.02;;
23163;SDS011;31429;42.674;23.350;2023-02-18T00:32:30;21.13;;;14.98;;
23163;SDS011;31429;42.674;23.350;2023-02-18T00:33:31;24.83;;;15.70;;
23163;SDS011;31429;42.674;23.350;2023-02-18T00:34:32;27.00;;;14.93;;
23163;SDS011;31429;42.674;23.350;2023-02-18T00:35:32;25.90;;;15.90;;
23163;SDS011;31429;42.674;23.350;2023-02-18T00:36:33;24.23;;;16.13;;
23163;SDS011;31429;42.674;23.350;2023-02-18T00:37:36;24.15;;;15.45;;
23163;SDS011;31429;42.674;23.350;2023-02-18T00:38:36;25.38;;;15.18;;
23163;SDS011;31429;42.674;23.350;2023-02-18T00:39:37;22.00;;;15.00;;
23163;SDS011;31429;42.674;23.350;2023-02-18T00:40:38;24.17;;;14.97;;
23163;SDS011;31429;42.674;23.350;2023-02-18T00:41:39;26.80;;;15.88;;
23163;SDS011;31429;42.674;23.350;2023-02-18T00:42:40;22.47;;;14.97;;
23163;SDS011;31429;42.674;23.350;2023-02-18T00:43:40;24.53;;;15.67;;
23163;SDS011;31429;42.674;23.350;2023-02-18T00:44:41;22.42;;;15.38;;
23163;SDS011;31429;42.674;23.350;2023-02-18T00:45:42;22.53;;;15.67;;
23163;SDS011;31429;42.674;23.350;2023-02-18T00:46:43;20.50;;;14.43;;
23163;SDS011;31429;42.674;23.350;2023-02-18T00:47:43;23.13;;;15.10;;
23163;SDS011;31429;42.674;23.350;2023-02-18T00:48:44;22.23;;;16.00;;
23163;SDS011;31429;42.674;23.350;2023-02-18T00:49:45;25.55;;;15.48;;
23163;SDS011;31429;42.674;23.350;2023-02-18T00:50:46;21.80;;;15.07;;
23163;SDS011;31429;42.674;23.350;2023-02-18T00:51:46;25.30;;;16.87;;
23163;SDS011;31429;42.674;23.350;2023-02-18T00:52:48;26.63;;;16.40;;
23163;SDS011;31429;42.674;23.350;2023-02-18T00:53:49;22.85;;;15.38;;
23163;SDS011;31429;42.674;23.350;2023-02-18T00:54:50;22.52;;;14.95;;
23163;SDS011;31429;42.674;23.350;2023-02-18T00:55:51;24.50;;;15.47;;
23163;SDS011;31429;42.674;23.350;2023-02-18T00:56:51;23.80;;;15.90;;
23163;SDS011;31429;42.674;23.350;2023-02-18T00:57:52;25.93;;;16.33;;
23163;SDS011;31429;42.674;23.350;2023-02-18T00:58:53;25.33;;;15.63;;
23163;SDS011;31429;42.674;23.350;2023-02-18T00:59:53;24.57;;;16.40;;
23163;SDS011;31429;42.674;23.350;2023-02-18T01:00:54;26.03;;;17.20;;
23163;SDS011;31429;42.674;23.350;2023-02-18T01:01:55;24.07;;;15.70;;
23163;SDS011;31429;42.674;23.350;2023-02-18T01:02:55;20.80;;;15.00;;
23163;SDS011;31429;42.674;23.350;2023-02-18T01:03:56;23.13;;;16.07;;
23163;SDS011;31429;42.674;23.350;2023-02-18T01:04:56;23.13;;;15.30;;
23163;SDS011;31429;42.674;23.350;2023-02-18T01:05:57;25.77;;;16.70;;
23163;SDS011;31429;42.674;23.350;2023-02-18T01:06:58;29.70;;;15.83;;
23163;SDS011;31429;42.674;23.350;2023-02-18T01:08:00;24.20;;;15.70;;
23163;SDS011;31429;42.674;23.350;2023-02-18T01:09:00;29.15;;;17.13;;
23163;SDS011;31429;42.674;23.350;2023-02-18T01:10:01;24.57;;;15.37;;
23163;SDS011;31429;42.674;23.350;2023-02-18T01:11:02;22.17;;;15.80;;
23163;SDS011;31429;42.674;23.350;2023-02-18T01:12:04;22.40;;;15.23;;
23163;SDS011;31429;42.674;23.350;2023-02-18T01:13:05;24.15;;;15.98;;
23163;SDS011;31429;42.674;23.350;2023-02-18T01:14:06;26.30;;;16.00;;
23163;SDS011;31429;42.674;23.350;2023-02-18T01:15:07;27.37;;;16.47;;
23163;SDS011;31429;42.674;23.350;2023-02-18T01:16:08;23.25;;;15.82;;
23163;SDS011;31429;42.674;23.350;2023-02-18T01:17:09;21.90;;;15.57;;
23163;SDS011;31429;42.674;23.350;2023-02-18T01:18:10;25.35;;;16.13;;
23163;SDS011;31429;42.674;23.350;2023-02-18T01:19:11;28.98;;;16.25;;
23163;SDS011;31429;42.674;23.350;2023-02-18T01:20:12;24.00;;;15.73;;
23163;SDS011;31429;42.674;23.350;2023-02-18T01:21:14;25.70;;;16.13;;
23163;SDS011;31429;42.674;23.350;2023-02-18T01:22:15;31.05;;;17.20;;
23163;SDS011;31429;42.674;23.350;2023-02-18T01:23:17;25.77;;;16.43;;
23163;SDS011;31429;42.674;23.350;2023-02-18T01:24:18;26.20;;;16.77;;
23163;SDS011;31429;42.674;23.350;2023-02-18T01:25:19;22.73;;;15.90;;
23163;SDS011;31429;42.674;23.350;2023-02-18T01:26:19;22.07;;;15.57;;
23163;SDS011;31429;42.674;23.350;2023-02-18T01:27:20;20.77;;;15.27;;
23163;SDS011;31429;42.674;23.350;2023-02-18T01:28:21;26.67;;;16.60;;
23163;SDS011;31429;42.674;23.350;2023-02-18T01:29:24;22.42;;;15.65;;
23163;SDS011;31429;42.674;23.350;2023-02-18T01:30:25;21.27;;;15.30;;
23163;SDS011;31429;42.674;23.350;2023-02-18T01:31:25;26.87;;;15.90;;
23163;SDS011;31429;42.674;23.350;2023-02-18T01:32:26;24.13;;;15.87;;
23163;SDS011;31429;42.674;23.350;2023-02-18T01:33:27;21.33;;;15.03;;
23163;SDS011;31429;42.674;23.350;2023-02-18T01:34:28;24.70;;;16.13;;
23163;SDS011;31429;42.674;23.350;2023-02-18T01:35:28;27.83;;;16.77;;
23163;SDS011;31429;42.674;23.350;2023-02-18T01:36:29;27.73;;;16.70;;
23163;SDS011;31429;42.674;23.350;2023-02-18T01:37:30;24.07;;;16.20;;
23163;SDS011;31429;42.674;23.350;2023-02-18T01:38:32;26.00;;;17.13;;
23163;SDS011;31429;42.674;23.350;2023-02-18T01:39:33;22.92;;;16.33;;
23163;SDS011;31429;42.674;23.350;2023-02-18T01:40:34;28.57;;;18.13;;
23163;SDS011;31429;42.674;23.350;2023-02-18T01:41:35;25.10;;;16.35;;
23163;SDS011;31429;42.674;23.350;2023-02-18T01:42:36;25.97;;;16.97;;
23163;SDS011;31429;42.674;23.350;2023-02-18T01:43:37;23.92;;;15.85;;
23163;SDS011;31429;42.674;23.350;2023-02-18T01:44:39;24.80;;;16.40;;
23163;SDS011;31429;42.674;23.350;2023-02-18T01:45:50;29.45;;;17.05;;
23163;SDS011;31429;42.674;23.350;2023-02-18T01:46:57;27.55;;;17.48;;
23163;SDS011;31429;42.674;23.350;2023-02-18T01:47:57;26.43;;;16.77;;
23163;SDS011;31429;42.674;23.350;2023-02-18T01:48:59;27.77;;;17.90;;
23163;SDS011;31429;42.674;23.350;2023-02-18T01:50:00;32.83;;;18.80;;
23163;SDS011;31429;42.674;23.350;2023-02-18T01:51:02;24.90;;;17.30;;
23163;SDS011;31429;42.674;23.350;2023-02-18T01:52:07;26.92;;;18.00;;
23163;SDS011;31429;42.674;23.350;2023-02-18T01:53:11;26.95;;;18.05;;
23163;SDS011;31429;42.674;23.350;2023-02-18T01:54:17;25.60;;;17.08;;
23163;SDS011;31429;42.674;23.350;2023-02-18T01:55:21;26.83;;;17.23;;
23163;SDS011;31429;42.674;23.350;2023-02-18T01:56:23;30.87;;;17.57;;
23163;SDS011;31429;42.674;23.350;2023-02-18T01:57:29;31.80;;;17.73;;
23163;SDS011;31429;42.674;23.350;2023-02-18T01:58:32;28.15;;;16.98;;
23163;SDS011;31429;42.674;23.350;2023-02-18T01:59:33;28.90;;;16.50;;
23163;SDS011;31429;42.674;23.350;2023-02-18T02:00:38;28.40;;;16.67;;
23163;SDS011;31429;42.674;23.350;2023-02-18T02:01:39;28.80;;;17.00;;
23163;SDS011;31429;42.674;23.350;2023-02-18T02:02:43;23.90;;;16.63;;
23163;SDS011;31429;42.674;23.350;2023-02-18T02:03:45;28.20;;;16.27;;
23163;SDS011;31429;42.674;23.350;2023-02-18T02:04:46;28.17;;;18.03;;
23163;SDS011;31429;42.674;23.350;2023-02-18T02:05:47;23.25;;;16.05;;
23163;SDS011;31429;42.674;23.350;2023-02-18T02:06:48;29.83;;;17.13;;
23163;SDS011;31429;42.674;23.350;2023-02-18T02:07:49;25.47;;;18.10;;
23163;SDS011;31429;42.674;23.350;2023-02-18T02:08:53;24.52;;;17.02;;
23163;SDS011;31429;42.674;23.350;2023-02-18T02:09:58;23.92;;;16.50;;
23163;SDS011;31429;42.674;23.350;2023-02-18T02:11:06;29.10;;;17.30;;
23163;SDS011;31429;42.674;23.350;2023-02-18T02:15:23;23.08;;;16.17;;
23163;SDS011;31429;42.674;23.350;2023-02-18T02:16:34;32.83;;;17.27;;
23163;SDS011;31429;42.674;23.350;2023-02-18T02:17:41;29.42;;;17.08;;
23163;SDS011;31429;42.674;23.350;2023-02-18T02:18:51;27.98;;;16.88;;
23163;SDS011;31429;42.674;23.350;2023-02-18T02:21:42;24.42;;;15.88;;
23163;SDS011;31429;42.674;23.350;2023-02-18T02:23:11;25.75;;;16.88;;
23163;SDS011;31429;42.674;23.350;2023-02-18T02:24:50;23.65;;;16.08;;
23163;SDS011;31429;42.674;23.350;2023-02-18T02:26:06;26.65;;;16.02;;
23163;SDS011;31429;42.674;23.350;2023-02-18T02:27:43;22.75;;;15.20;;
23163;SDS011;31429;42.674;23.350;2023-02-18T02:29:11;24.73;;;16.27;;
23163;SDS011;31429;42.674;23.350;2023-02-18T02:30:41;21.75;;;14.98;;
23163;SDS011;31429;42.674;23.350;2023-02-18T02:31:56;26.30;;;15.90;;
23163;SDS011;31429;42.674;23.350;2023-02-18T02:33:20;26.27;;;16.27;;
23163;SDS011;31429;42.674;23.350;2023-02-18T02:34:45;25.27;;;16.02;;
23163;SDS011;31429;42.674;23.350;2023-02-18T02:35:51;22.02;;;14.95;;
23163;SDS011;31429;42.674;23.350;2023-02-18T02:36:58;25.77;;;16.20;;
23163;SDS011;31429;42.674;23.350;2023-02-18T02:38:06;25.08;;;16.05;;
23163;SDS011;31429;42.674;23.350;2023-02-18T02:39:13;23.10;;;15.88;;
23163;SDS011;31429;42.674;23.350;2023-02-18T02:40:22;25.55;;;16.75;;
23163;SDS011;31429;42.674;23.350;2023-02-18T02:41:35;24.98;;;15.90;;
23163;SDS011;31429;42.674;23.350;2023-02-18T02:42:45;25.40;;;16.63;;
23163;SDS011;31429;42.674;23.350;2023-02-18T02:43:55;25.73;;;17.25;;
23163;SDS011;31429;42.674;23.350;2023-02-18T02:45:08;24.42;;;16.92;;
23163;SDS011;31429;42.674;23.350;2023-02-18T02:46:15;24.73;;;16.77;;
23163;SDS011;31429;42.674;23.350;2023-02-18T02:47:20;28.15;;;17.33;;
23163;SDS011;31429;42.674;23.350;2023-02-18T02:48:28;26.23;;;16.02;;
23163;SDS011;31429;42.674;23.350;2023-02-18T02:49:36;23.15;;;16.27;;
23163;SDS011;31429;42.674;23.350;2023-02-18T02:50:44;22.00;;;15.63;;
23163;SDS011;31429;42.674;23.350;2023-02-18T02:51:51;25.05;;;16.52;;
23163;SDS011;31429;42.674;23.350;2023-02-18T02:52:58;25.60;;;16.15;;
23163;SDS011;31429;42.674;23.350;2023-02-18T02:54:09;23.00;;;16.60;;
23163;SDS011;31429;42.674;23.350;2023-02-18T02:55:12;24.30;;;17.27;;
23163;SDS011;31429;42.674;23.350;2023-02-18T02:56:13;28.90;;;16.80;;
23163;SDS011;31429;42.674;23.350;2023-02-18T02:58:42;26.77;;;16.73;;
23163;SDS011;31429;42.674;23.350;2023-02-18T02:59:47;26.33;;;18.23;;
23163;SDS011;31429;42.674;23.350;2023-02-18T03:01:00;29.38;;;17.83;;
23163;SDS011;31429;42.674;23.350;2023-02-18T03:02:18;27.15;;;16.27;;
23163;SDS011;31429;42.674;23.350;2023-02-18T03:03:35;26.77;;;17.40;;
23163;SDS011;31429;42.674;23.350;2023-02-18T03:04:55;25.35;;;17.38;;
23163;SDS011;31429;42.674;23.350;2023-02-18T03:06:15;26.40;;;16.90;;
23163;SDS011;31429;42.674;23.350;2023-02-18T03:07:37;24.08;;;16.02;;
23163;SDS011;31429;42.674;23.350;2023-02-18T03:09:01;24.48;;;16.02;;
23163;SDS011;31429;42.674;23.350;2023-02-18T03:10:13;28.80;;;16.75;;
23163;SDS011;31429;42.674;23.350;2023-02-18T03:11:25;28.88;;;16.50;;
23163;SDS011;31429;42.674;23.350;2023-02-18T03:12:31;25.85;;;17.35;;
23163;SDS011;31429;42.674;23.350;2023-02-18T03:13:39;25.23;;;17.23;;
23163;SDS011;31429;42.674;23.350;2023-02-18T03:14:53;24.88;;;17.83;;
23163;SDS011;31429;42.674;23.350;2023-02-18T03:16:00;28.05;;;17.83;;
23163;SDS011;31429;42.674;23.350;2023-02-18T03:17:13;28.10;;;17.33;;
23163;SDS011;31429;42.674;23.350;2023-02-18T03:18:23;30.48;;;17.83;;
23163;SDS011;31429;42.674;23.350;2023-02-18T03:19:30;26.13;;;17.05;;
23163;SDS011;31429;42.674;23.350;2023-02-18T03:20:34;29.92;;;17.05;;
23163;SDS011;31429;42.674;23.350;2023-02-18T03:21:40;25.38;;;17.08;;
23163;SDS011;31429;42.674;23.350;2023-02-18T03:22:45;23.20;;;15.90;;
23163;SDS011;31429;42.674;23.350;2023-02-18T03:23:50;25.90;;;16.52;;
23163;SDS011;31429;42.674;23.350;2023-02-18T03:24:55;25.50;;;16.45;;
23163;SDS011;31429;42.674;23.350;2023-02-18T03:25:57;24.38;;;15.93;;
23163;SDS011;31429;42.674;23.350;2023-02-18T03:26:59;27.95;;;17.15;;
23163;SDS011;31429;42.674;23.350;2023-02-18T03:28:06;27.70;;;16.17;;
23163;SDS011;31429;42.674;23.350;2023-02-18T03:29:10;27.98;;;16.50;;
23163;SDS011;31429;42.674;23.350;2023-02-18T03:30:15;31.52;;;18.15;;
23163;SDS011;31429;42.674;23.350;2023-02-18T03:31:20;26.55;;;17.13;;
23163;SDS011;31429;42.674;23.350;2023-02-18T03:32:25;24.75;;;16.80;;
23163;SDS011;31429;42.674;23.350;2023-02-18T03:33:29;24.85;;;16.15;;
23163;SDS011;31429;42.674;23.350;2023-02-18T03:34:35;22.48;;;16.30;;
23163;SDS011;31429;42.674;23.350;2023-02-18T03:35:40;28.77;;;17.95;;
23163;SDS011;31429;42.674;23.350;2023-02-18T03:36:44;26.85;;;16.92;;
23163;SDS011;31429;42.674;23.350;2023-02-18T03:37:46;24.67;;;16.73;;
23163;SDS011;31429;42.674;23.350;2023-02-18T03:38:53;23.98;;;17.25;;
23163;SDS011;31429;42.674;23.350;2023-02-18T03:39:58;26.80;;;17.50;;
23163;SDS011;31429;42.674;23.350;2023-02-18T03:41:01;27.35;;;16.95;;
23163;SDS011;31429;42.674;23.350;2023-02-18T03:42:01;28.20;;;17.43;;
23163;SDS011;31429;42.674;23.350;2023-02-18T03:43:02;24.60;;;16.87;;
23163;SDS011;31429;42.674;23.350;2023-02-18T03:44:03;26.57;;;16.60;;
23163;SDS011;31429;42.674;23.350;2023-02-18T03:45:06;31.77;;;20.20;;
23163;SDS011;31429;42.674;23.350;2023-02-18T03:46:07;33.70;;;19.47;;
23163;SDS011;31429;42.674;23.350;2023-02-18T03:47:07;26.17;;;17.10;;
23163;SDS011;31429;42.674;23.350;2023-02-18T03:48:08;30.73;;;19.77;;
23163;SDS011;31429;42.674;23.350;2023-02-18T03:49:09;42.20;;;22.80;;
23163;SDS011;31429;42.674;23.350;2023-02-18T03:50:10;31.23;;;20.30;;
23163;SDS011;31429;42.674;23.350;2023-02-18T03:51:11;36.20;;;20.50;;
23163;SDS011;31429;42.674;23.350;2023-02-18T03:52:13;32.37;;;21.53;;
23163;SDS011;31429;42.674;23.350;2023-02-18T03:53:14;29.10;;;19.33;;
23163;SDS011;31429;42.674;23.350;2023-02-18T03:54:14;33.47;;;22.63;;
23163;SDS011;31429;42.674;23.350;2023-02-18T03:55:15;35.50;;;21.87;;
23163;SDS011;31429;42.674;23.350;2023-02-18T03:56:16;36.07;;;23.73;;
23163;SDS011;31429;42.674;23.350;2023-02-18T03:57:17;38.45;;;24.27;;
23163;SDS011;31429;42.674;23.350;2023-02-18T03:58:17;36.53;;;22.33;;
23163;SDS011;31429;42.674;23.350;2023-02-18T03:59:18;36.80;;;21.93;;
23163;SDS011;31429;42.674;23.350;2023-02-18T04:00:19;36.43;;;23.43;;
23163;SDS011;31429;42.674;23.350;2023-02-18T04:01:20;31.88;;;22.05;;
23163;SDS011;31429;42.674;23.350;2023-02-18T04:02:21;37.57;;;23.37;;
23163;SDS011;31429;42.674;23.350;2023-02-18T04:03:21;37.80;;;22.33;;
23163;SDS011;31429;42.674;23.350;2023-02-18T04:04:22;38.20;;;23.03;;
23163;SDS011;31429;42.674;23.350;2023-02-18T04:05:23;40.73;;;23.27;;
23163;SDS011;31429;42.674;23.350;2023-02-18T04:06:23;35.83;;;23.33;;
23163;SDS011;31429;42.674;23.350;2023-02-18T04:07:26;38.43;;;24.23;;
23163;SDS011;31429;42.674;23.350;2023-02-18T04:08:26;35.85;;;25.48;;
23163;SDS011;31429;42.674;23.350;2023-02-18T04:09:27;37.50;;;24.43;;
23163;SDS011;31429;42.674;23.350;2023-02-18T04:10:28;35.83;;;24.17;;
23163;SDS011;31429;42.674;23.350;2023-02-18T04:11:28;38.50;;;24.10;;
23163;SDS011;31429;42.674;23.350;2023-02-18T04:12:29;40.97;;;24.37;;
23163;SDS011;31429;42.674;23.350;2023-02-18T04:13:30;37.60;;;24.13;;
23163;SDS011;31429;42.674;23.350;2023-02-18T04:14:31;35.43;;;23.70;;
23163;SDS011;31429;42.674;23.350;2023-02-18T04:15:31;39.77;;;23.87;;
23163;SDS011;31429;42.674;23.350;2023-02-18T04:16:33;37.30;;;24.48;;
23163;SDS011;31429;42.674;23.350;2023-02-18T04:17:34;35.97;;;24.03;;
23163;SDS011;31429;42.674;23.350;2023-02-18T04:18:35;36.85;;;22.58;;
23163;SDS011;31429;42.674;23.350;2023-02-18T04:19:36;35.83;;;22.80;;
23163;SDS011;31429;42.674;23.350;2023-02-18T04:20:36;35.17;;;23.17;;
23163;SDS011;31429;42.674;23.350;2023-02-18T04:21:37;35.83;;;23.37;;
23163;SDS011;31429;42.674;23.350;2023-02-18T04:22:39;34.10;;;23.80;;
23163;SDS011;31429;42.674;23.350;2023-02-18T04:23:40;36.75;;;22.77;;
23163;SDS011;31429;42.674;23.350;2023-02-18T04:24:40;35.27;;;23.27;;
23163;SDS011;31429;42.674;23.350;2023-02-18T04:25:41;34.80;;;23.03;;
23163;SDS011;31429;42.674;23.350;2023-02-18T04:26:42;37.60;;;23.33;;
23163;SDS011;31429;42.674;23.350;2023-02-18T04:27:42;37.73;;;22.97;;
23163;SDS011;31429;42.674;23.350;2023-02-18T04:28:43;36.20;;;21.67;;
23163;SDS011;31429;42.674;23.350;2023-02-18T04:29:44;34.03;;;22.53;;
23163;SDS011;31429;42.674;23.350;2023-02-18T04:30:45;36.43;;;23.23;;
23163;SDS011;31429;42.674;23.350;2023-02-18T04:31:46;35.47;;;23.48;;
23163;SDS011;31429;42.674;23.350;2023-02-18T04:32:46;35.70;;;22.17;;
23163;SDS011;31429;42.674;23.350;2023-02-18T04:33:47;35.80;;;23.10;;
23163;SDS011;31429;42.674;23.350;2023-02-18T04:34:48;35.23;;;22.43;;
23163;SDS011;31429;42.674;23.350;2023-02-18T04:35:48;39.20;;;25.03;;
23163;SDS011;31429;42.674;23.350;2023-02-18T04:36:49;46.50;;;26.47;;
23163;SDS011;31429;42.674;23.350;2023-02-18T04:37:51;49.63;;;26.43;;
23163;SDS011;31429;42.674;23.350;2023-02-18T04:38:51;38.13;;;24.38;;
23163;SDS011;31429;42.674;23.350;2023-02-18T04:39:52;47.70;;;28.00;;
23163;SDS011;31429;42.674;23.350;2023-02-18T04:40:53;44.87;;;24.90;;
23163;SDS011;31429;42.674;23.350;2023-02-18T04:41:53;48.47;;;25.67;;
23163;SDS011;31429;42.674;23.350;2023-02-18T04:42:55;41.63;;;25.97;;
23163;SDS011;31429;42.674;23.350;2023-02-18T04:43:56;43.22;;;25.45;;
23163;SDS011;31429;42.674;23.350;2023-02-18T04:44:58;40.45;;;25.33;;
23163;SDS011;31429;42.674;23.350;2023-02-18T04:45:59;51.93;;;29.63;;
23163;SDS011;31429;42.674;23.350;2023-02-18T04:46:59;58.27;;;32.90;;
23163;SDS011;31429;42.674;23.350;2023-02-18T04:48:00;59.63;;;31.97;;
23163;SDS011;31429;42.674;23.350;2023-02-18T04:49:01;65.80;;;32.90;;
23163;SDS011;31429;42.674;23.350;2023-02-18T04:50:01;57.03;;;34.00;;
23163;SDS011;31429;42.674;23.350;2023-02-18T04:51:02;46.80;;;28.93;;
23163;SDS011;31429;42.674;23.350;2023-02-18T04:52:03;44.10;;;25.02;;
23163;SDS011;31429;42.674;23.350;2023-02-18T04:53:06;40.28;;;25.83;;
23163;SDS011;31429;42.674;23.350;2023-02-18T04:54:07;42.90;;;27.58;;
23163;SDS011;31429;42.674;23.350;2023-02-18T04:55:08;44.57;;;27.67;;
23163;SDS011;31429;42.674;23.350;2023-02-18T04:56:09;43.33;;;28.00;;
23163;SDS011;31429;42.674;23.350;2023-02-18T04:57:09;43.43;;;26.63;;
23163;SDS011;31429;42.674;23.350;2023-02-18T04:58:10;43.90;;;27.17;;
23163;SDS011;31429;42.674;23.350;2023-02-18T04:59:11;45.00;;;26.67;;
23163;SDS011;31429;42.674;23.350;2023-02-18T05:00:12;40.47;;;26.37;;
23163;SDS011;31429;42.674;23.350;2023-02-18T05:01:15;41.08;;;24.52;;
23163;SDS011;31429;42.674;23.350;2023-02-18T05:02:15;39.07;;;24.50;;
23163;SDS011;31429;42.674;23.350;2023-02-18T05:03:16;40.63;;;25.27;;
23163;SDS011;31429;42.674;23.350;2023-02-18T05:04:16;45.57;;;26.73;;
23163;SDS011;31429;42.674;23.350;2023-02-18T05:05:17;37.57;;;24.93;;
23163;SDS011;31429;42.674;23.350;2023-02-18T05:06:18;37.40;;;25.00;;
23163;SDS011;31429;42.674;23.350;2023-02-18T05:07:19;37.67;;;24.03;;
23163;SDS011;31429;42.674;23.350;2023-02-18T05:08:20;36.20;;;23.70;;
23163;SDS011;31429;42.674;23.350;2023-02-18T05:09:21;42.63;;;26.52;;
23163;SDS011;31429;42.674;23.350;2023-02-18T05:10:23;43.58;;;25.52;;
23163;SDS011;31429;42.674;23.350;2023-02-18T05:11:23;39.20;;;24.00;;
23163;SDS011;31429;42.674;23.350;2023-02-18T05:12:24;38.40;;;25.27;;
23163;SDS011;31429;42.674;23.350;2023-02-18T05:13:25;46.97;;;25.70;;
23163;SDS011;31429;42.674;23.350;2023-02-18T05:14:25;37.77;;;22.90;;
23163;SDS011;31429;42.674;23.350;2023-02-18T05:15:26;32.90;;;22.17;;
23163;SDS011;31429;42.674;23.350;2023-02-18T05:16:27;33.10;;;21.40;;
23163;SDS011;31429;42.674;23.350;2023-02-18T05:17:27;36.77;;;22.80;;
23163;SDS011;31429;42.674;23.350;2023-02-18T05:18:28;32.27;;;21.17;;
23163;SDS011;31429;42.674;23.350;2023-02-18T05:19:28;32.93;;;22.33;;
23163;SDS011;31429;42.674;23.350;2023-02-18T05:20:29;34.63;;;21.80;;
23163;SDS011;31429;42.674;23.350;2023-02-18T05:21:30;31.95;;;22.67;;
23163;SDS011;31429;42.674;23.350;2023-02-18T05:22:31;32.67;;;21.80;;
23163;SDS011;31429;42.674;23.350;2023-02-18T05:23:33;36.33;;;21.97;;
23163;SDS011;31429;42.674;23.350;2023-02-18T05:24:34;32.88;;;21.30;;
23163;SDS011;31429;42.674;23.350;2023-02-18T05:25:34;29.73;;;19.57;;
23163;SDS011;31429;42.674;23.350;2023-02-18T05:26:35;30.07;;;20.77;;
23163;SDS011;31429;42.674;23.350;2023-02-18T05:27:36;32.30;;;21.27;;
23163;SDS011;31429;42.674;23.350;2023-02-18T05:28:36;33.00;;;20.90;;
23163;SDS011;31429;42.674;23.350;2023-02-18T05:29:37;31.77;;;19.77;;
23163;SDS011;31429;42.674;23.350;2023-02-18T05:30:37;32.80;;;20.97;;
23163;SDS011;31429;42.674;23.350;2023-02-18T05:31:38;31.73;;;20.20;;
23163;SDS011;31429;42.674;23.350;2023-02-18T05:32:39;33.77;;;21.17;;
23163;SDS011;31429;42.674;23.350;2023-02-18T05:33:40;34.47;;;21.23;;
23163;SDS011;31429;42.674;23.350;2023-02-18T05:34:41;31.03;;;20.37;;
23163;SDS011;31429;42.674;23.350;2023-02-18T05:35:42;35.83;;;20.07;;
23163;SDS011;31429;42.674;23.350;2023-02-18T05:36:42;28.13;;;18.87;;
23163;SDS011;31429;42.674;23.350;2023-02-18T05:37:43;32.70;;;20.20;;
23163;SDS011;31429;42.674;23.350;2023-02-18T05:38:45;35.50;;;19.47;;
23163;SDS011;31429;42.674;23.350;2023-02-18T05:39:46;29.38;;;20.58;;
23163;SDS011;31429;42.674;23.350;2023-02-18T05:40:46;31.50;;;20.50;;
23163;SDS011;31429;42.674;23.350;2023-02-18T05:41:47;32.37;;;22.03;;
23163;SDS011;31429;42.674;23.350;2023-02-18T05:42:48;28.07;;;18.77;;
23163;SDS011;31429;42.674;23.350;2023-02-18T05:43:48;31.20;;;19.63;;
23163;SDS011;31429;42.674;23.350;2023-02-18T05:45:08;30.80;;;19.63;;
23163;SDS011;31429;42.674;23.350;2023-02-18T05:46:08;29.80;;;19.83;;
23163;SDS011;31429;42.674;23.350;2023-02-18T05:47:10;29.73;;;19.63;;
23163;SDS011;31429;42.674;23.350;2023-02-18T05:48:11;31.98;;;19.63;;
23163;SDS011;31429;42.674;23.350;2023-02-18T05:49:12;35.72;;;20.17;;
23163;SDS011;31429;42.674;23.350;2023-02-18T05:50:13;28.90;;;20.03;;
23163;SDS011;31429;42.674;23.350;2023-02-18T05:51:13;25.50;;;19.67;;
23163;SDS011;31429;42.674;23.350;2023-02-18T05:52:14;37.70;;;22.30;;
23163;SDS011;31429;42.674;23.350;2023-02-18T05:53:15;32.13;;;20.10;;
23163;SDS011;31429;42.674;23.350;2023-02-18T05:54:17;31.27;;;19.83;;
23163;SDS011;31429;42.674;23.350;2023-02-18T05:55:17;27.08;;;20.02;;
23163;SDS011;31429;42.674;23.350;2023-02-18T05:56:18;31.40;;;19.90;;
23163;SDS011;31429;42.674;23.350;2023-02-18T05:57:19;26.87;;;19.80;;
23163;SDS011;31429;42.674;23.350;2023-02-18T05:58:21;32.70;;;20.13;;
23163;SDS011;31429;42.674;23.350;2023-02-18T05:59:21;30.40;;;19.03;;
23163;SDS011;31429;42.674;23.350;2023-02-18T06:00:23;32.50;;;20.10;;
23163;SDS011;31429;42.674;23.350;2023-02-18T06:01:24;32.28;;;19.38;;
23163;SDS011;31429;42.674;23.350;2023-02-18T06:02:25;34.93;;;20.63;;
23163;SDS011;31429;42.674;23.350;2023-02-18T06:03:26;36.43;;;21.47;;
23163;SDS011;31429;42.674;23.350;2023-02-18T06:04:26;30.53;;;18.90;;
23163;SDS011;31429;42.674;23.350;2023-02-18T06:05:27;32.70;;;19.97;;
23163;SDS011;31429;42.674;23.350;2023-02-18T06:06:28;29.77;;;19.77;;
23163;SDS011;31429;42.674;23.350;2023-02-18T06:07:28;26.03;;;18.77;;
23163;SDS011;31429;42.674;23.350;2023-02-18T06:08:29;29.73;;;20.33;;
23163;SDS011;31429;42.674;23.350;2023-02-18T06:09:31;29.40;;;18.53;;
23163;SDS011;31429;42.674;23.350;2023-02-18T06:10:32;37.67;;;19.55;;